Terminal Aerodrome Forecast
Issued by NWS

Home | Current Version | Previous Version | Graphics & Text | Print | Product List | Glossary On
Versions: 1 2 3 4 5 6 7 8 9 10 11 12 13 14 15 16 17 18
000
FTUS42 KMHX 270540
TAFOAJ
TAF
KOAJ 270540Z 2706/2806 00000KT P6SM SCT050 OVC090
     FM270900 01006KT 5SM BR OVC005
     FM271500 04009KT P6SM SCT025 BKN040
     FM271800 05008KT P6SM VCTS BKN040CB
      AMD LTD TO CLD VIS AND WIND=

USA.gov is the U.S. government's official web portal to all federal, state and local government web resources and services.